Time;durP1;ratioP1;P1;durP2;ratioP2;P2;SDS_P1;SDS_P2;PMS_P1;PMS_P2;Temp;Humidity;BMP_temperature;BMP_pressure;BME280_temperature;BME280_humidity;BME280_pressure;Samples;Min_cycle;Max_cycle;Signal;HPM_P1;HPM_P2
2023/04/21 00:00:54;;;;;;;31.73;19.63;;;7.40;68.60;;;;;;5038340;28;47360;-66
2023/04/21 00:03:22;;;;;;;33.67;19.70;;;7.30;68.60;;;;;;5038022;28;46254;-65
2023/04/21 00:05:48;;;;;;;32.07;18.87;;;7.30;68.70;;;;;;5039851;28;46551;-66
2023/04/21 00:08:14;;;;;;;33.53;19.90;;;7.30;68.80;;;;;;5041272;28;46475;-65
2023/04/21 00:10:40;;;;;;;34.20;21.00;;;7.20;68.90;;;;;;5033334;28;46489;-65
2023/04/21 00:13:05;;;;;;;33.40;19.20;;;7.20;69.00;;;;;;5041165;28;46456;-65
2023/04/21 00:15:31;;;;;;;39.30;21.90;;;7.30;69.00;;;;;;5038676;28;46398;-64
2023/04/21 00:17:57;;;;;;;32.90;20.10;;;7.30;68.70;;;;;;5043079;28;45810;-66
2023/04/21 00:20:25;;;;;;;35.93;20.40;;;7.40;68.60;;;;;;5041276;28;46391;-66
2023/04/21 00:22:54;;;;;;;35.00;20.07;;;7.40;68.50;;;;;;5037564;28;46428;-65
2023/04/21 00:25:20;;;;;;;35.00;21.37;;;7.50;68.70;;;;;;5040475;28;46491;-65
2023/04/21 00:27:46;;;;;;;34.73;20.40;;;7.40;68.50;;;;;;5042082;28;46343;-65
2023/04/21 00:30:11;;;;;;;30.33;19.40;;;7.40;68.60;;;;;;5041457;28;47245;-65
2023/04/21 00:32:37;;;;;;;25.87;16.70;;;7.50;68.70;;;;;;5040208;28;46425;-65
2023/04/21 00:35:03;;;;;;;29.83;16.70;;;7.50;68.60;;;;;;5040944;28;46353;-65
2023/04/21 00:37:29;;;;;;;29.87;18.20;;;7.50;68.70;;;;;;5042067;28;46373;-65
2023/04/21 00:39:54;;;;;;;26.10;17.90;;;7.50;68.70;;;;;;5035489;28;46097;-66
2023/04/21 00:42:20;;;;;;;27.93;16.97;;;7.40;68.80;;;;;;5040773;28;46364;-66
2023/04/21 00:44:45;;;;;;;30.43;18.00;;;7.40;68.90;;;;;;5037188;28;46458;-66
2023/04/21 00:47:11;;;;;;;34.00;19.80;;;7.50;68.90;;;;;;5040943;28;46379;-66
2023/04/21 00:49:37;;;;;;;33.70;19.97;;;7.50;68.70;;;;;;5038289;28;46465;-65
2023/04/21 00:52:05;;;;;;;34.33;19.63;;;7.50;68.50;;;;;;5041486;28;45813;-65
2023/04/21 00:54:34;;;;;;;32.03;20.40;;;7.60;68.50;;;;;;5040934;28;45973;-65
2023/04/21 00:57:00;;;;;;;33.23;19.60;;;7.60;68.30;;;;;;5042561;28;46248;-66
2023/04/21 00:59:26;;;;;;;29.70;17.67;;;7.60;68.20;;;;;;5037368;28;46580;-66
2023/04/21 01:01:52;;;;;;;27.73;17.90;;;7.70;68.20;;;;;;5038079;28;46252;-65
2023/04/21 01:04:17;;;;;;;24.97;15.37;;;7.70;68.20;;;;;;5038274;28;46460;-65
2023/04/21 01:06:43;;;;;;;27.43;17.43;;;7.70;68.20;;;;;;5038705;28;45920;-66
2023/04/21 01:09:09;;;;;;;26.90;16.67;;;7.70;68.20;;;;;;5038080;28;49292;-65
2023/04/21 01:11:34;;;;;;;34.30;17.90;;;7.70;68.20;;;;;;5041097;28;46882;-66
2023/04/21 01:14:00;;;;;;;33.23;20.77;;;7.80;68.40;;;;;;5037761;28;46472;-65
2023/04/21 01:16:26;;;;;;;32.47;20.20;;;7.80;68.40;;;;;;5041197;28;46150;-65
2023/04/21 01:18:52;;;;;;;30.00;19.53;;;7.80;68.40;;;;;;5050285;28;46417;-65
2023/04/21 01:21:19;;;;;;;37.00;22.30;;;7.80;68.10;;;;;;5040971;28;46427;-66
2023/04/21 01:23:45;;;;;;;31.73;20.40;;;7.90;67.90;;;;;;5036294;28;46311;-64
2023/04/21 01:26:11;;;;;;;35.00;21.40;;;7.90;67.70;;;;;;5040721;28;46377;-66
2023/04/21 01:28:37;;;;;;;28.43;18.23;;;7.90;67.90;;;;;;5038973;28;46361;-64
2023/04/21 01:31:03;;;;;;;33.20;20.43;;;7.80;67.90;;;;;;5039823;28;46473;-65
2023/04/21 01:33:29;;;;;;;33.83;20.03;;;7.90;68.00;;;;;;5039649;28;46377;-66
2023/04/21 01:35:55;;;;;;;32.47;19.30;;;7.80;68.00;;;;;;5039230;28;46584;-66
2023/04/21 01:38:21;;;;;;;34.33;20.90;;;7.80;68.10;;;;;;5040897;28;47105;-65
2023/04/21 01:40:49;;;;;;;35.07;21.10;;;7.90;68.20;;;;;;5037781;28;46389;-66
2023/04/21 01:43:17;;;;;;;33.17;20.57;;;7.90;68.10;;;;;;5037723;28;46365;-66
2023/04/21 01:45:43;;;;;;;35.37;21.33;;;7.90;68.00;;;;;;5039985;28;46656;-65
2023/04/21 01:48:09;;;;;;;38.10;21.10;;;7.90;67.90;;;;;;5037881;28;46988;-65
2023/04/21 01:50:35;;;;;;;32.60;20.43;;;7.90;67.80;;;;;;5037571;28;46455;-65
2023/04/21 01:53:00;;;;;;;33.60;21.20;;;7.90;67.80;;;;;;5034543;28;46369;-64
2023/04/21 01:55:26;;;;;;;30.50;18.90;;;7.90;67.90;;;;;;5039335;28;46563;-66
2023/04/21 01:57:51;;;;;;;32.90;21.10;;;7.90;68.00;;;;;;5035881;28;47018;-65
2023/04/21 02:00:20;;;;;;;34.00;20.90;;;7.80;68.10;;;;;;5036213;28;46422;-65
2023/04/21 02:02:46;;;;;;;33.00;21.77;;;7.80;68.20;;;;;;5038553;28;46216;-65
2023/04/21 02:05:11;;;;;;;31.47;20.17;;;7.70;68.80;;;;;;5037559;28;47132;-65
2023/04/21 02:07:37;;;;;;;37.50;22.17;;;7.50;69.00;;;;;;5037877;28;46172;-65
2023/04/21 02:10:02;;;;;;;42.40;23.17;;;7.40;69.40;;;;;;5035749;28;46560;-65
2023/04/21 02:12:28;;;;;;;41.47;22.93;;;7.40;69.60;;;;;;5037233;28;45764;-65
2023/04/21 02:14:54;;;;;;;40.17;22.10;;;7.40;69.50;;;;;;5038202;28;46672;-65
2023/04/21 02:17:19;;;;;;;39.50;22.50;;;7.40;69.70;;;;;;5029927;28;48215;-65
2023/04/21 02:19:46;;;;;;;44.87;23.40;;;7.40;69.60;;;;;;5038596;28;46520;-65
2023/04/21 02:22:12;;;;;;;37.90;21.77;;;7.50;69.10;;;;;;5036165;28;46449;-65
2023/04/21 02:24:38;;;;;;;38.30;22.30;;;7.60;68.60;;;;;;5039243;28;46414;-65
2023/04/21 02:27:04;;;;;;;39.37;23.70;;;7.70;68.50;;;;;;5035966;28;46996;-64
2023/04/21 02:29:29;;;;;;;38.60;23.23;;;7.60;68.60;;;;;;5039346;28;46377;-65
2023/04/21 02:31:55;;;;;;;37.17;22.60;;;7.70;68.60;;;;;;5037969;28;46303;-65
2023/04/21 02:34:21;;;;;;;38.80;22.10;;;7.80;68.10;;;;;;5038385;28;46753;-65
2023/04/21 02:36:47;;;;;;;39.00;23.13;;;7.80;68.20;;;;;;5033216;28;46577;-66
2023/04/21 02:39:12;;;;;;;41.57;23.20;;;7.70;68.60;;;;;;5039577;28;46398;-65
2023/04/21 02:41:38;;;;;;;40.00;22.17;;;7.70;68.50;;;;;;5037510;28;46452;-64
2023/04/21 02:44:05;;;;;;;39.40;24.60;;;7.80;68.30;;;;;;5034388;28;45895;-65
2023/04/21 02:46:30;;;;;;;38.70;24.40;;;7.80;68.20;;;;;;5035796;28;46352;-65
2023/04/21 02:48:56;;;;;;;39.10;24.43;;;7.90;68.00;;;;;;5034602;28;46462;-65
2023/04/21 02:51:22;;;;;;;35.93;22.37;;;7.90;68.00;;;;;;5037544;28;46451;-66
2023/04/21 02:53:47;;;;;;;38.20;23.57;;;7.90;68.20;;;;;;5038131;28;46610;-66
2023/04/21 02:56:13;;;;;;;37.90;22.70;;;7.80;68.20;;;;;;5037275;28;47563;-65
2023/04/21 02:58:39;;;;;;;36.03;22.13;;;7.90;68.30;;;;;;5037696;28;46480;-65
2023/04/21 03:01:05;;;;;;;35.47;22.40;;;7.90;68.20;;;;;;5037228;28;46743;-66
2023/04/21 03:03:31;;;;;;;35.97;22.33;;;7.90;68.10;;;;;;5038206;28;46347;-65
2023/04/21 03:05:58;;;;;;;37.40;22.10;;;8.00;68.10;;;;;;5043643;28;46303;-66
2023/04/21 03:08:24;;;;;;;37.57;22.47;;;7.90;68.20;;;;;;5040765;28;46438;-65
2023/04/21 03:10:50;;;;;;;38.40;23.00;;;8.00;68.10;;;;;;5035933;28;46750;-65
2023/04/21 03:13:16;;;;;;;38.00;22.23;;;7.90;68.10;;;;;;5038947;28;46883;-64
2023/04/21 03:15:41;;;;;;;39.90;23.87;;;7.90;68.10;;;;;;5037286;28;46421;-66
2023/04/21 03:18:07;;;;;;;40.90;22.00;;;7.90;68.20;;;;;;5038568;28;46493;-65
2023/04/21 03:20:32;;;;;;;37.33;21.90;;;7.90;68.30;;;;;;5053499;28;45878;-64
2023/04/21 03:22:58;;;;;;;39.13;22.40;;;7.90;68.40;;;;;;5036402;28;46372;-64
2023/04/21 03:25:26;;;;;;;40.00;21.80;;;7.80;68.30;;;;;;5038931;28;46389;-65
2023/04/21 03:27:52;;;;;;;45.97;24.20;;;7.80;68.70;;;;;;5036305;28;46413;-65
2023/04/21 03:30:19;;;;;;;43.67;23.70;;;7.70;69.10;;;;;;5036016;28;46407;-66
2023/04/21 03:32:44;;;;;;;51.57;27.00;;;7.60;69.70;;;;;;5035159;28;46701;-64
2023/04/21 03:35:10;;;;;;;57.40;32.53;;;7.60;69.90;;;;;;5040948;28;46140;-66
2023/04/21 03:37:35;;;;;;;47.90;24.90;;;7.60;69.80;;;;;;5039685;28;46433;-65
2023/04/21 03:40:01;;;;;;;40.07;25.00;;;7.60;69.70;;;;;;5039927;28;46338;-66
2023/04/21 03:42:28;;;;;;;44.93;24.60;;;7.60;69.80;;;;;;5042303;28;46488;-68
2023/04/21 03:44:54;;;;;;;43.63;25.07;;;7.60;69.50;;;;;;5041294;28;46410;-65
2023/04/21 03:47:20;;;;;;;41.90;24.90;;;7.60;69.40;;;;;;5041409;28;46367;-68
2023/04/21 03:49:45;;;;;;;40.90;25.40;;;7.70;69.40;;;;;;5038972;28;46405;-68
2023/04/21 03:52:11;;;;;;;41.90;25.07;;;7.60;69.60;;;;;;5038786;28;46636;-68
2023/04/21 03:54:36;;;;;;;44.47;24.43;;;7.70;69.70;;;;;;5040907;28;46734;-68
2023/04/21 03:57:02;;;;;;;42.83;24.87;;;7.70;69.30;;;;;;5036712;28;46432;-69
2023/04/21 03:59:28;;;;;;;42.53;23.37;;;7.70;69.40;;;;;;5038270;28;46562;-68
2023/04/21 04:01:53;;;;;;;48.80;29.73;;;7.80;69.40;;;;;;5038721;28;46400;-68
2023/04/21 04:04:19;;;;;;;44.20;26.00;;;7.70;69.70;;;;;;5042050;28;47016;-69
2023/04/21 04:06:45;;;;;;;46.93;26.30;;;7.70;69.50;;;;;;5040786;28;46631;-67
2023/04/21 04:09:11;;;;;;;50.37;30.10;;;7.60;69.80;;;;;;5042063;28;46497;-69
2023/04/21 04:11:36;;;;;;;51.93;29.67;;;7.50;70.20;;;;;;5041992;28;46393;-68
2023/04/21 04:14:02;;;;;;;42.37;23.53;;;7.50;70.50;;;;;;5038764;28;46633;-67
2023/04/21 04:16:28;;;;;;;46.47;27.27;;;7.40;70.50;;;;;;5039465;28;46320;-68
2023/04/21 04:18:53;;;;;;;44.00;26.77;;;7.50;70.60;;;;;;5037278;28;46389;-66
2023/04/21 04:21:19;;;;;;;43.37;24.93;;;7.60;70.40;;;;;;5040339;28;46443;-68
2023/04/21 04:23:45;;;;;;;54.50;27.03;;;7.50;70.50;;;;;;5036328;28;46328;-68
2023/04/21 04:26:11;;;;;;;51.47;27.30;;;7.40;70.60;;;;;;5042730;28;45778;-68
2023/04/21 04:28:37;;;;;;;47.83;26.60;;;7.50;70.70;;;;;;5040346;28;46383;-68
2023/04/21 04:31:02;;;;;;;43.27;25.50;;;7.50;70.60;;;;;;5039776;28;46361;-68
2023/04/21 04:33:28;;;;;;;48.17;26.27;;;7.50;70.50;;;;;;5040315;28;46424;-67
2023/04/21 04:35:54;;;;;;;45.90;24.63;;;7.40;70.90;;;;;;5037109;28;46429;-68
2023/04/21 04:38:19;;;;;;;44.40;25.00;;;7.40;71.20;;;;;;5040602;28;46555;-68
2023/04/21 04:40:52;;;;;;;49.67;27.60;;;7.40;71.20;;;;;;5040325;28;46556;-69
2023/04/21 04:43:18;;;;;;;46.20;26.00;;;7.40;71.20;;;;;;5039395;28;46383;-68
2023/04/21 04:45:44;;;;;;;48.20;27.57;;;7.40;71.30;;;;;;5039021;28;46522;-68
2023/04/21 04:48:10;;;;;;;46.40;24.70;;;7.50;71.10;;;;;;5039521;28;46760;-69
2023/04/21 04:50:35;;;;;;;41.23;22.57;;;7.60;70.70;;;;;;5039976;28;46439;-68
2023/04/21 04:53:01;;;;;;;46.43;23.27;;;7.70;70.30;;;;;;5046500;28;47131;-69
2023/04/21 04:55:26;;;;;;;45.37;24.60;;;7.80;69.90;;;;;;5041747;28;46410;-68
2023/04/21 04:57:52;;;;;;;42.37;23.07;;;7.80;69.70;;;;;;5040713;28;46390;-68
2023/04/21 05:00:18;;;;;;;39.17;23.17;;;7.90;70.00;;;;;;5040053;28;46397;-68
2023/04/21 05:02:44;;;;;;;39.17;22.00;;;8.00;69.70;;;;;;5041170;28;46464;-68
2023/04/21 05:05:09;;;;;;;40.00;22.27;;;8.00;69.20;;;;;;5038379;28;46401;-67
2023/04/21 05:07:35;;;;;;;39.43;21.90;;;8.10;69.00;;;;;;5039968;28;46370;-68
2023/04/21 05:10:03;;;;;;;42.07;24.17;;;8.20;68.90;;;;;;5039275;28;45773;-69
2023/04/21 05:12:29;;;;;;;36.30;22.53;;;8.30;68.90;;;;;;5041484;28;46312;-68
2023/04/21 05:14:54;;;;;;;39.13;21.70;;;8.40;68.90;;;;;;5038506;28;46536;-68
2023/04/21 05:17:20;;;;;;;42.73;22.73;;;8.40;68.90;;;;;;5041113;28;46409;-68
2023/04/21 05:19:45;;;;;;;35.63;22.10;;;8.40;68.80;;;;;;5040370;28;46827;-68
2023/04/21 05:22:11;;;;;;;40.20;22.20;;;8.50;68.60;;;;;;5039607;28;48320;-67
2023/04/21 05:24:37;;;;;;;38.73;22.87;;;8.60;68.40;;;;;;5041826;28;46479;-68
2023/04/21 05:27:02;;;;;;;31.93;19.73;;;8.60;68.10;;;;;;5039522;28;46428;-68
2023/04/21 05:29:28;;;;;;;38.13;22.60;;;8.60;68.30;;;;;;5036675;28;46571;-68
2023/04/21 05:31:54;;;;;;;35.97;21.80;;;8.60;68.50;;;;;;5037245;28;47048;-67
2023/04/21 05:34:19;;;;;;;35.30;20.77;;;8.70;68.70;;;;;;5040314;28;46648;-69
2023/04/21 05:36:46;;;;;;;33.87;20.90;;;8.70;68.80;;;;;;5038719;28;46275;-68
2023/04/21 05:39:11;;;;;;;34.23;20.33;;;8.80;68.90;;;;;;5036763;28;45870;-68
2023/04/21 05:41:37;;;;;;;34.93;21.50;;;8.90;68.70;;;;;;5037763;28;47124;-69
2023/04/21 05:44:02;;;;;;;31.50;19.83;;;8.90;68.40;;;;;;5039535;28;46573;-68
2023/04/21 05:46:29;;;;;;;36.17;19.93;;;9.00;68.60;;;;;;5038439;28;46343;-68
2023/04/21 05:48:54;;;;;;;31.60;19.60;;;9.10;68.50;;;;;;5037566;28;46456;-65
2023/04/21 05:51:20;;;;;;;35.67;20.40;;;9.20;68.40;;;;;;5039349;28;47169;-68
2023/04/21 05:53:45;;;;;;;31.20;20.23;;;9.30;68.20;;;;;;5033935;28;46469;-68
2023/04/21 05:56:12;;;;;;;33.90;21.27;;;9.40;68.00;;;;;;5038772;28;46446;-68
2023/04/21 05:58:38;;;;;;;30.53;19.20;;;9.30;68.10;;;;;;5034569;28;46408;-68
2023/04/21 06:01:05;;;;;;;32.83;20.20;;;9.40;68.20;;;;;;5031954;28;46212;-68
2023/04/21 06:03:31;;;;;;;35.40;22.50;;;9.40;68.20;;;;;;5034437;28;46513;-66
2023/04/21 06:05:58;;;;;;;32.63;20.30;;;9.40;68.40;;;;;;5035312;28;45815;-67
2023/04/21 06:08:24;;;;;;;32.37;20.97;;;9.50;68.30;;;;;;5037631;28;46417;-68
2023/04/21 06:10:49;;;;;;;31.83;21.10;;;9.80;67.70;;;;;;5037903;28;46413;-66
2023/04/21 06:13:15;;;;;;;33.90;21.27;;;10.00;65.90;;;;;;5036652;28;46460;-69
2023/04/21 06:15:41;;;;;;;30.37;20.20;;;10.10;65.60;;;;;;5038182;28;46541;-68
2023/04/21 06:18:06;;;;;;;32.00;18.83;;;10.00;65.80;;;;;;5036082;28;46398;-69
2023/04/21 06:20:32;;;;;;;31.33;20.20;;;9.90;67.00;;;;;;5036736;28;46445;-69
2023/04/21 06:22:57;;;;;;;34.33;20.03;;;10.00;65.90;;;;;;5033271;28;46549;-66
2023/04/21 06:25:23;;;;;;;28.07;19.57;;;10.00;65.70;;;;;;5038816;28;46204;-68
2023/04/21 06:27:49;;;;;;;27.40;19.80;;;10.00;65.50;;;;;;5037136;28;46378;-71
2023/04/21 06:30:16;;;;;;;31.13;21.03;;;10.10;65.50;;;;;;5037285;28;46382;-69
2023/04/21 06:32:44;;;;;;;27.67;19.43;;;10.30;64.80;;;;;;5037446;28;45943;-69
2023/04/21 06:35:10;;;;;;;30.30;19.40;;;10.40;64.80;;;;;;5036688;28;46508;-69
2023/04/21 06:37:35;;;;;;;28.03;19.33;;;10.40;64.80;;;;;;5042531;28;45897;-68
2023/04/21 06:40:01;;;;;;;31.00;19.83;;;10.50;65.00;;;;;;5036103;28;46404;-69
2023/04/21 06:42:27;;;;;;;26.97;19.10;;;10.50;64.90;;;;;;5035593;28;46433;-70
2023/04/21 06:44:52;;;;;;;26.77;19.17;;;10.20;64.80;;;;;;5038476;28;46412;-70
2023/04/21 06:47:18;;;;;;;29.70;19.03;;;10.20;65.60;;;;;;5040240;28;46529;-67
2023/04/21 06:49:43;;;;;;;31.23;22.73;;;10.30;65.40;;;;;;5032136;28;46984;-66
2023/04/21 06:52:10;;;;;;;27.70;19.53;;;10.30;64.70;;;;;;5037256;28;46441;-68
2023/04/21 06:54:35;;;;;;;25.53;18.60;;;10.50;64.10;;;;;;5038310;28;46668;-65
2023/04/21 06:57:01;;;;;;;29.27;17.57;;;10.60;64.20;;;;;;5036710;28;46521;-70
2023/04/21 06:59:27;;;;;;;29.13;19.13;;;10.60;63.50;;;;;;5042294;28;47039;-73
2023/04/21 07:01:53;;;;;;;27.00;19.20;;;10.30;64.40;;;;;;5039018;28;46464;-69
2023/04/21 07:04:19;;;;;;;28.70;18.00;;;10.20;64.60;;;;;;5037627;28;46493;-69
2023/04/21 07:06:45;;;;;;;33.37;18.83;;;10.10;64.50;;;;;;5030981;28;46096;-69
2023/04/21 07:09:10;;;;;;;26.40;17.80;;;10.20;64.60;;;;;;5028153;28;46454;-65
2023/04/21 07:11:36;;;;;;;28.57;18.53;;;10.50;64.10;;;;;;5033900;28;46441;-66
2023/04/21 07:14:02;;;;;;;28.40;18.93;;;10.60;63.60;;;;;;5039133;28;46725;-67
2023/04/21 07:16:28;;;;;;;27.57;17.67;;;10.60;63.30;;;;;;5037646;28;46538;-65
2023/04/21 07:18:53;;;;;;;25.97;17.57;;;10.60;63.30;;;;;;5037784;28;46709;-67
2023/04/21 07:21:19;;;;;;;26.30;18.47;;;10.50;63.60;;;;;;5034581;28;46735;-67
2023/04/21 07:23:45;;;;;;;29.20;19.77;;;10.50;63.50;;;;;;5036190;28;46391;-68
2023/04/21 07:26:10;;;;;;;27.30;18.50;;;10.50;63.00;;;;;;5038935;28;46335;-67
2023/04/21 07:28:39;;;;;;;28.20;19.10;;;10.70;62.60;;;;;;5038759;28;46002;-66
2023/04/21 07:31:05;;;;;;;29.50;19.00;;;10.90;60.60;;;;;;5023768;27;46444;-67
2023/04/21 07:33:30;;;;;;;32.23;20.73;;;10.90;60.00;;;;;;5035920;28;46496;-66
2023/04/21 07:35:56;;;;;;;27.40;19.10;;;10.90;60.00;;;;;;5039530;28;46523;-67
2023/04/21 07:38:22;;;;;;;32.37;19.17;;;11.00;59.70;;;;;;5039913;28;46632;-68
2023/04/21 07:40:47;;;;;;;25.27;17.03;;;11.00;59.40;;;;;;5034087;28;46583;-67
2023/04/21 07:43:13;;;;;;;29.20;17.87;;;11.20;59.30;;;;;;5038290;28;46471;-68
2023/04/21 07:45:39;;;;;;;29.50;19.40;;;11.30;58.60;;;;;;5039724;28;46708;-67
2023/04/21 07:48:05;;;;;;;28.13;18.23;;;11.50;57.70;;;;;;5036797;28;46369;-66
2023/04/21 07:50:31;;;;;;;29.17;18.67;;;11.80;56.90;;;;;;5036339;28;46478;-66
2023/04/21 07:52:56;;;;;;;26.17;17.60;;;12.10;56.40;;;;;;5032936;28;45981;-67
2023/04/21 07:55:22;;;;;;;26.65;18.27;;;12.10;55.60;;;;;;5034026;28;46372;-66
2023/04/21 07:57:48;;;;;;;26.17;17.17;;;12.10;55.40;;;;;;5035581;28;48268;-68
2023/04/21 08:00:14;;;;;;;29.13;19.20;;;12.30;55.20;;;;;;5037906;28;46726;-68
2023/04/21 08:02:40;;;;;;;26.43;17.70;;;12.40;54.30;;;;;;5037752;28;45889;-66
2023/04/21 08:05:06;;;;;;;26.63;16.90;;;12.50;53.90;;;;;;5035653;28;46693;-66
2023/04/21 08:07:32;;;;;;;29.10;15.73;;;12.40;54.20;;;;;;5037597;28;47296;-66
2023/04/21 08:09:59;;;;;;;25.07;17.43;;;12.30;54.70;;;;;;5033162;28;46444;-66
2023/04/21 08:12:25;;;;;;;22.53;14.97;;;12.40;54.80;;;;;;5035599;28;46491;-66
2023/04/21 08:14:50;;;;;;;23.47;15.07;;;12.50;54.50;;;;;;5035575;28;46712;-67
2023/04/21 08:17:16;;;;;;;22.70;14.60;;;12.50;53.90;;;;;;5036488;28;46295;-66
2023/04/21 08:19:42;;;;;;;27.53;16.63;;;12.60;54.00;;;;;;5035921;28;46433;-65
2023/04/21 08:22:08;;;;;;;23.40;16.10;;;12.70;54.20;;;;;;5038326;28;46459;-67
2023/04/21 08:24:33;;;;;;;23.83;16.53;;;12.90;54.30;;;;;;5040328;28;46575;-67
2023/04/21 08:27:00;;;;;;;23.93;16.23;;;13.00;54.10;;;;;;5039439;28;46457;-67
2023/04/21 08:29:27;;;;;;;21.70;15.17;;;13.30;53.10;;;;;;5039931;28;46447;-65
2023/04/21 08:31:52;;;;;;;22.23;15.23;;;13.50;53.30;;;;;;5037944;28;46500;-65
2023/04/21 08:34:18;;;;;;;20.20;13.53;;;13.60;52.50;;;;;;5040957;28;46400;-66
2023/04/21 08:36:46;;;;;;;22.57;13.70;;;13.70;51.20;;;;;;5040667;28;46006;-67
2023/04/21 08:39:12;;;;;;;18.40;13.17;;;13.90;51.10;;;;;;5040712;28;46415;-67
2023/04/21 08:41:40;;;;;;;18.73;12.87;;;14.00;50.40;;;;;;5037959;28;46436;-66
2023/04/21 08:44:07;;;;;;;19.93;13.57;;;13.90;49.10;;;;;;5040536;28;46499;-67
2023/04/21 08:46:33;;;;;;;18.70;12.47;;;13.90;49.90;;;;;;5038203;28;46436;-67
2023/04/21 08:49:00;;;;;;;16.70;11.57;;;14.10;49.30;;;;;;5039521;28;46405;-66
2023/04/21 08:51:27;;;;;;;17.67;12.23;;;14.20;48.50;;;;;;5037418;28;46528;-68
2023/04/21 08:53:56;;;;;;;19.47;12.30;;;14.10;48.60;;;;;;5039067;28;46396;-67
2023/04/21 08:56:24;;;;;;;19.50;12.53;;;14.10;49.30;;;;;;5037640;28;48067;-66
2023/04/21 08:58:49;;;;;;;22.50;13.40;;;13.90;47.20;;;;;;5038450;28;46322;-66
2023/04/21 09:01:15;;;;;;;17.13;12.60;;;13.60;47.30;;;;;;5039098;28;46404;-67
2023/04/21 09:03:41;;;;;;;19.53;12.93;;;13.60;48.00;;;;;;5039629;28;46504;-66
2023/04/21 09:06:08;;;;;;;23.47;13.57;;;13.60;47.60;;;;;;5036733;28;46344;-66
2023/04/21 09:08:38;;;;;;;22.93;12.80;;;13.50;47.60;;;;;;5039937;28;46515;-66
2023/04/21 09:11:05;;;;;;;17.97;12.33;;;13.40;47.80;;;;;;5039682;28;46369;-67
2023/04/21 09:13:35;;;;;;;22.30;12.50;;;13.50;47.80;;;;;;5035139;28;46427;-67
2023/04/21 09:16:02;;;;;;;15.23;9.37;;;13.60;47.60;;;;;;5035382;28;46322;-67
2023/04/21 09:18:34;;;;;;;13.57;9.63;;;13.60;47.70;;;;;;5040370;28;46420;-66
2023/04/21 09:21:07;;;;;;;15.30;10.73;;;13.70;47.50;;;;;;5037714;28;46628;-67
2023/04/21 09:23:48;;;;;;;15.50;9.13;;;13.80;47.00;;;;;;5040643;28;46523;-66
2023/04/21 09:26:14;;;;;;;13.60;8.23;;;13.90;47.10;;;;;;5039567;28;47970;-66
2023/04/21 09:28:45;;;;;;;13.73;9.60;;;14.00;47.80;;;;;;5037349;28;46405;-65
2023/04/21 09:31:23;;;;;;;19.47;10.57;;;14.10;45.10;;;;;;5037755;28;46579;-65
2023/04/21 09:33:54;;;;;;;17.40;11.80;;;14.20;44.70;;;;;;5036243;28;46445;-66
2023/04/21 09:36:25;;;;;;;17.77;10.60;;;14.40;43.80;;;;;;5040132;28;46184;-66
2023/04/21 09:38:53;;;;;;;17.00;10.53;;;14.30;43.30;;;;;;5037214;28;46417;-68
2023/04/21 09:41:19;;;;;;;17.10;10.50;;;14.30;44.20;;;;;;5040715;28;46397;-68
2023/04/21 09:43:45;;;;;;;17.37;11.63;;;14.40;44.40;;;;;;5038742;28;46503;-66
2023/04/21 09:46:12;;;;;;;15.67;10.80;;;14.80;43.40;;;;;;5038788;28;47035;-66
2023/04/21 09:48:45;;;;;;;15.70;10.60;;;14.60;43.80;;;;;;5039247;28;46430;-66
2023/04/21 09:51:12;;;;;;;15.90;11.43;;;14.60;43.60;;;;;;5034672;28;46548;-67
2023/04/21 09:53:43;;;;;;;14.73;10.67;;;14.60;43.30;;;;;;5037941;28;46205;-67
2023/04/21 09:56:12;;;;;;;17.33;11.87;;;14.50;44.00;;;;;;5036085;28;47531;-68
2023/04/21 09:58:46;;;;;;;17.70;11.67;;;14.60;44.00;;;;;;5037586;28;46476;-68
2023/04/21 10:01:13;;;;;;;19.50;13.20;;;14.80;43.30;;;;;;5037794;28;45986;-66
2023/04/21 10:03:39;;;;;;;21.47;12.60;;;14.90;42.90;;;;;;5038981;28;46544;-67
2023/04/21 10:06:06;;;;;;;20.33;12.43;;;14.70;43.40;;;;;;5038255;28;46389;-67
2023/04/21 10:08:32;;;;;;;18.23;11.90;;;14.60;42.80;;;;;;5037998;28;46449;-66
2023/04/21 10:10:59;;;;;;;16.97;11.23;;;14.40;44.10;;;;;;5038770;28;46644;-67
2023/04/21 10:13:25;;;;;;;22.80;12.53;;;14.70;43.70;;;;;;5037822;28;46460;-69
2023/04/21 10:16:06;;;;;;;21.07;13.00;;;14.60;43.40;;;;;;5039378;28;46559;-66
2023/04/21 10:18:35;;;;;;;23.40;13.73;;;14.70;44.30;;;;;;5037278;28;46368;-68
2023/04/21 10:21:04;;;;;;;21.67;12.80;;;14.80;44.40;;;;;;5036857;28;46512;-66
2023/04/21 10:23:36;;;;;;;22.63;14.50;;;14.90;44.00;;;;;;5038295;28;45972;-65
2023/04/21 10:26:23;;;;;;;23.97;13.67;;;14.80;42.90;;;;;;5037448;28;46819;-71
2023/04/21 10:28:59;;;;;;;22.97;14.07;;;14.80;43.70;;;;;;5037367;28;46534;-67
2023/04/21 10:31:47;;;;;;;23.23;13.80;;;14.80;43.80;;;;;;5038131;28;46509;-71
2023/04/21 10:34:14;;;;;;;22.17;14.40;;;14.70;43.00;;;;;;5038252;28;45852;-68
2023/04/21 10:36:50;;;;;;;22.90;13.83;;;14.60;43.10;;;;;;5038618;28;46397;-69
2023/04/21 10:39:26;;;;;;;22.60;14.40;;;14.80;43.60;;;;;;5036855;28;45842;-70
2023/04/21 10:41:59;;;;;;;17.60;12.07;;;14.90;43.90;;;;;;5034569;28;46519;-69
2023/04/21 10:44:27;;;;;;;19.37;13.27;;;15.00;43.50;;;;;;5036650;28;46421;-67
2023/04/21 10:46:53;;;;;;;20.97;14.00;;;14.80;42.90;;;;;;5035182;28;47607;-69
2023/04/21 10:49:24;;;;;;;19.40;13.23;;;14.90;42.90;;;;;;5039288;28;46428;-67
2023/04/21 10:51:56;;;;;;;20.40;13.37;;;15.10;43.10;;;;;;5035854;28;46460;-67
2023/04/21 10:54:27;;;;;;;21.43;15.47;;;15.10;43.10;;;;;;5035378;28;46263;-70
2023/04/21 10:56:54;;;;;;;27.37;15.93;;;15.10;42.30;;;;;;5036996;28;46387;-69
2023/04/21 10:59:20;;;;;;;24.07;15.30;;;15.00;43.10;;;;;;5039271;28;46515;-67
2023/04/21 11:01:46;;;;;;;17.60;12.90;;;14.90;42.90;;;;;;5034100;28;46480;-66
2023/04/21 11:04:16;;;;;;;22.87;15.10;;;15.00;42.70;;;;;;5037273;28;46458;-68
2023/04/21 11:06:42;;;;;;;29.33;16.80;;;15.10;43.00;;;;;;5036238;28;47448;-66
2023/04/21 11:09:08;;;;;;;26.63;15.43;;;15.00;43.10;;;;;;5036657;28;46436;-69
2023/04/21 11:11:35;;;;;;;28.97;17.33;;;15.00;43.00;;;;;;5037968;28;45909;-68
2023/04/21 11:14:01;;;;;;;27.10;16.90;;;15.20;43.30;;;;;;5037004;28;46033;-67
2023/04/21 11:16:27;;;;;;;26.63;16.30;;;15.10;42.90;;;;;;5038288;28;46405;-68
2023/04/21 11:18:55;;;;;;;25.13;14.90;;;15.20;43.20;;;;;;5035154;28;46452;-66
2023/04/21 11:21:21;;;;;;;21.70;14.90;;;15.00;43.00;;;;;;5035327;28;46526;-68
2023/04/21 11:23:55;;;;;;;22.27;14.87;;;15.00;43.10;;;;;;5036675;28;46520;-68
2023/04/21 11:26:37;;;;;;;21.93;15.70;;;15.10;43.20;;;;;;5036115;28;46483;-69
2023/04/21 11:29:07;;;;;;;23.07;15.27;;;15.20;43.30;;;;;;5037809;28;46467;-68
2023/04/21 11:31:34;;;;;;;22.27;14.40;;;15.30;44.30;;;;;;5037306;28;46595;-67
2023/04/21 11:34:00;;;;;;;22.30;14.10;;;15.20;43.30;;;;;;5037059;28;46319;-67
2023/04/21 11:36:26;;;;;;;21.87;14.33;;;15.30;43.30;;;;;;5037172;28;47380;-68
2023/04/21 11:38:52;;;;;;;23.33;14.13;;;15.30;43.30;;;;;;5036805;28;46411;-69
2023/04/21 11:41:24;;;;;;;23.27;15.87;;;15.40;43.40;;;;;;5035511;28;45916;-68
2023/04/21 11:43:51;;;;;;;24.50;13.20;;;15.50;43.40;;;;;;5038618;28;46667;-65
2023/04/21 11:46:24;;;;;;;26.07;14.33;;;15.40;43.30;;;;;;5035879;28;46476;-68
2023/04/21 11:49:06;;;;;;;22.43;13.40;;;15.60;43.60;;;;;;5039084;28;46425;-67
2023/04/21 11:51:37;;;;;;;23.07;16.10;;;15.70;43.70;;;;;;5038037;28;45783;-67
2023/04/21 11:54:08;;;;;;;20.60;13.80;;;15.70;43.70;;;;;;5036369;28;46555;-66
2023/04/21 11:56:39;;;;;;;21.73;14.70;;;15.80;43.80;;;;;;5039829;28;46730;-68
2023/04/21 11:59:12;;;;;;;23.37;16.10;;;15.80;43.70;;;;;;5039352;28;46639;-72
2023/04/21 12:01:44;;;;;;;22.87;14.83;;;15.90;43.80;;;;;;5036382;28;46435;-69
2023/04/21 12:04:18;;;;;;;22.70;14.40;;;16.00;43.90;;;;;;5039497;28;46438;-68
2023/04/21 12:06:45;;;;;;;21.97;13.90;;;16.00;43.90;;;;;;5040479;28;46099;-70
2023/04/21 12:09:18;;;;;;;20.60;14.33;;;16.00;44.00;;;;;;5037146;28;46356;-69
2023/04/21 12:11:48;;;;;;;22.05;15.70;;;16.10;44.00;;;;;;5037920;28;46480;-67
2023/04/21 12:14:15;;;;;;;21.00;13.70;;;16.20;43.40;;;;;;5039615;28;46462;-66
2023/04/21 12:16:41;;;;;;;21.93;15.07;;;16.10;43.70;;;;;;5040407;28;46515;-68
2023/04/21 12:19:06;;;;;;;24.20;16.47;;;16.20;43.20;;;;;;5038704;28;46333;-68
2023/04/21 12:21:32;;;;;;;25.37;15.87;;;16.20;43.40;;;;;;5040614;28;46475;-67
2023/04/21 12:23:58;;;;;;;24.67;15.70;;;16.20;44.20;;;;;;5041787;28;46412;-67
2023/04/21 12:26:23;;;;;;;22.47;16.30;;;16.30;44.20;;;;;;5040628;28;46368;-66
2023/04/21 12:28:50;;;;;;;24.40;13.90;;;16.30;43.90;;;;;;5041985;28;46372;-67
2023/04/21 12:31:16;;;;;;;25.13;16.33;;;16.50;44.00;;;;;;5038776;28;46506;-68